KUCP

Details ICAO KUCP
Name NEW CASTLE MUNI
Region United States
Timezone America/New_York (UTC-4.0)
Plans Departing 9
Arriving 8
Stats Elevation 1,072 ft / 327 m (AMSL)
Location 41.025040° -80.413438°
Runways 2
Magnetic Variation 9.152° W
Sunrise 2018-05-22 09:59:12 UTC / 2018-05-22 05:59:12 Local
Sunset 2018-05-23 00:40:20 UTC / 2018-05-22 20:40:20 Local
Advertisement - Login to hide

Runways

ID Width Length Bearing (true) Bearing (mag) Surface Threshold Offset Overrun Length
05 75 ft / 23 m 3,997 ft / 1,218 m 39.67° 48.82° Asphalt 0 ft / 0 m 0 ft / 0 m
13 100 ft / 30 m 2,849 ft / 868 m 118.87° 128.02° Asphalt 0 ft / 0 m 0 ft / 0 m
23 75 ft / 23 m 3,997 ft / 1,218 m 219.68° 228.83° Asphalt 0 ft / 0 m 0 ft / 0 m
31 100 ft / 30 m 2,849 ft / 868 m 298.88° 308.03° Asphalt 114 ft / 35 m 0 ft / 0 m

Map

Weather


0- 5 10 15 20 25 30 35+ Temperature / ° C

Clouds and Precipitation
Forecast for 2018-05-22 18:00 UTC. Updated 5 hours ago

Ground ~20,000 ft ~40,000 ft Winds

METAR

KUCP 222214Z AUTO 25006KT 4SM +TSRA BR FEW013 BKN040 OVC100 20/18 A2996 RMK AO2 LTG DSNT S AND SW TSE12B14 P0012

TAF

Not found

Frequencies

Recorded 124.17 MHz ASOS
Approach 133.95 MHz YOUNGSTOWN APP/DEP
Unicom 123.00 MHz CTAF/UNICOM
Warning: Do not use this data for real-world aviation or navigation. No guarantee of current accuracy is given.